Decoded Metar for VVPB (HUE in VIET NAM) (IATA:N/A) | Meteo·Mobile Aviation Weather
aviador You're here:

VVPB Decoded Metar

HUE in VIET NAM
Report Time2019-10-21 07:30:00
UTC Time2019-10-21 08:06:38
Flight Rules vfr VFR
Wind080° at 10 kt
W.Decomp.*RWY 09: 9.8 kt HW 1.7 kt LCW
Visibility9999 m
Phenomena:N/A
Clouds:Few 015 Hf
Expected CloudBase > 4,000 ft AGL from Temp-Dew spread
CeilingNone
Temp33°C (ISA +18)
Dew Point23°C (56% RH)
Heat Index38.1°C
QNH1011 hPa
Density Alt2,556 ft
Elevation56 ft
Report Wrong Elevation
Raw Report
METAR VVPB 210730Z 08010KT 9999 FEW015 33/23 Q1011 NOSIG=

Extra information for VVPB:More info

Metar Taf Metar & Taf Last 4 Metars F.Rules Stats Wind Profile Meteogram Temp Stats Airport Information Weather charts Add Link Nearby VenuesMetar ALERT Operation Metar Decoded Social comments